Time;durP1;ratioP1;P1;durP2;ratioP2;P2;SDS_P1;SDS_P2;PMS_P1;PMS_P2;Temp;Humidity;BMP_temperature;BMP_pressure;BME280_temperature;BME280_humidity;BME280_pressure;Samples;Min_cycle;Max_cycle;Signal;HPM_P1;HPM_P2
2023/07/11 00:02:23;;;;;;;0.10;0.10;;;13.00;60.40;;;;;;5072085;28;20224;-53
2023/07/11 00:04:54;;;;;;;0.10;0.10;;;13.00;60.50;;;;;;5071543;28;20272;-49
2023/07/11 00:07:26;;;;;;;0.10;0.10;;;13.00;60.50;;;;;;5071152;28;20247;-50
2023/07/11 00:09:57;;;;;;;0.10;0.10;;;13.10;60.60;;;;;;5055893;28;20188;-57
2023/07/11 00:12:29;;;;;;;0.10;0.10;;;13.10;60.50;;;;;;5036191;28;20208;-53
2023/07/11 00:14:59;;;;;;;0.20;0.20;;;13.10;60.50;;;;;;5071666;28;20214;-54
2023/07/11 00:17:30;;;;;;;0.13;0.13;;;13.10;60.60;;;;;;5071778;28;20244;-54
2023/07/11 00:20:01;;;;;;;0.10;0.10;;;13.10;60.60;;;;;;5071722;28;20252;-52
2023/07/11 00:22:34;;;;;;;0.20;0.20;;;13.10;60.60;;;;;;5071181;28;20356;-51
2023/07/11 00:25:04;;;;;;;0.10;0.10;;;13.10;60.60;;;;;;5071519;28;20264;-53
2023/07/11 00:27:35;;;;;;;0.10;0.10;;;13.10;60.70;;;;;;5071497;28;20248;-54
2023/07/11 00:30:06;;;;;;;0.20;0.20;;;13.10;60.70;;;;;;5071758;28;20194;-53
2023/07/11 00:32:37;;;;;;;0.10;0.10;;;13.20;60.70;;;;;;5072105;28;20775;-54
2023/07/11 00:35:09;;;;;;;0.20;0.20;;;13.20;60.80;;;;;;5071579;28;20191;-53
2023/07/11 00:37:41;;;;;;;0.10;0.10;;;13.20;60.80;;;;;;5071160;28;20198;-54
2023/07/11 00:40:15;;;;;;;0.20;0.20;;;13.20;60.80;;;;;;5071548;28;20202;-55
2023/07/11 00:42:46;;;;;;;0.10;0.10;;;13.20;60.90;;;;;;5071371;28;20230;-53
2023/07/11 00:45:48;;;;;;;0.10;0.10;;;13.20;60.90;;;;;;5071690;28;20225;-54
2023/07/11 00:48:20;;;;;;;0.10;0.10;;;13.20;60.90;;;;;;5067491;28;20202;-52
2023/07/11 00:50:52;;;;;;;0.10;0.10;;;13.30;61.00;;;;;;5071194;28;20232;-55
2023/07/11 00:53:25;;;;;;;0.10;0.10;;;13.30;60.90;;;;;;5071090;28;20219;-55
2023/07/11 00:55:57;;;;;;;0.10;0.10;;;13.30;60.90;;;;;;5071507;28;20394;-56
2023/07/11 00:58:28;;;;;;;0.10;0.10;;;13.30;60.90;;;;;;5071662;28;20198;-50
2023/07/11 01:00:59;;;;;;;0.10;0.10;;;13.30;61.00;;;;;;5058688;28;20199;-56
2023/07/11 01:03:30;;;;;;;0.15;0.15;;;13.30;61.00;;;;;;5053339;28;20556;-53
2023/07/11 01:06:01;;;;;;;0.10;0.10;;;13.30;61.00;;;;;;5037511;28;20249;-57
2023/07/11 01:08:33;;;;;;;0.10;0.10;;;13.30;61.00;;;;;;5035261;28;20196;-51
2023/07/11 01:11:04;;;;;;;0.10;0.10;;;13.30;61.00;;;;;;5035120;28;20204;-57
2023/07/11 01:13:35;;;;;;;0.10;0.10;;;13.40;61.10;;;;;;5058270;28;20215;-55
2023/07/11 01:16:05;;;;;;;0.20;0.20;;;13.40;61.10;;;;;;5068250;28;20524;-53
2023/07/11 01:18:36;;;;;;;0.20;0.20;;;13.40;62.00;;;;;;5055246;28;20204;-53
2023/07/11 01:21:08;;;;;;;0.10;0.10;;;13.40;61.20;;;;;;5054963;28;20687;-54
2023/07/11 01:23:40;;;;;;;0.10;0.10;;;13.40;61.20;;;;;;5054594;28;20307;-50
2023/07/11 01:26:11;;;;;;;0.20;0.20;;;13.40;61.20;;;;;;5054925;28;20203;-52
2023/07/11 01:28:42;;;;;;;0.10;0.10;;;13.40;61.20;;;;;;5054582;28;20192;-52
2023/07/11 01:31:13;;;;;;;0.20;0.20;;;13.50;61.30;;;;;;5054631;28;20207;-53
2023/07/11 01:33:44;;;;;;;0.10;0.10;;;13.50;61.20;;;;;;5055022;28;20230;-56
2023/07/11 01:36:14;;;;;;;0.10;0.10;;;13.50;61.30;;;;;;5054349;28;20191;-49
2023/07/11 01:38:47;;;;;;;0.10;0.10;;;13.50;61.30;;;;;;5054129;28;20246;-53
2023/07/11 01:41:18;;;;;;;0.10;0.10;;;13.50;61.20;;;;;;5054740;28;20231;-55
2023/07/11 01:43:48;;;;;;;0.10;0.10;;;13.50;61.20;;;;;;5068172;28;20234;-51
2023/07/11 01:46:19;;;;;;;0.10;0.10;;;13.60;61.30;;;;;;5074262;28;20203;-50
2023/07/11 01:48:50;;;;;;;0.10;0.10;;;13.60;61.30;;;;;;5074508;28;20218;-54
2023/07/11 01:51:20;;;;;;;0.10;0.10;;;13.60;61.30;;;;;;5074454;28;20599;-50
2023/07/11 01:53:53;;;;;;;0.10;0.10;;;13.60;61.30;;;;;;5074228;28;20214;-53
2023/07/11 01:56:24;;;;;;;0.10;0.10;;;13.60;61.40;;;;;;5074315;28;20199;-51
2023/07/11 01:58:54;;;;;;;0.10;0.10;;;13.60;61.40;;;;;;5074348;28;20256;-53
2023/07/11 02:01:25;;;;;;;0.17;0.17;;;13.70;61.40;;;;;;5074029;28;20222;-48
2023/07/11 02:03:55;;;;;;;0.10;0.10;;;13.70;61.50;;;;;;5074278;28;20207;-54
2023/07/11 02:06:26;;;;;;;0.10;0.10;;;13.70;62.30;;;;;;5073666;28;20228;-55
2023/07/11 02:09:02;;;;;;;0.10;0.10;;;13.70;61.50;;;;;;5054175;28;20229;-52
2023/07/11 02:11:33;;;;;;;0.10;0.10;;;13.70;61.50;;;;;;5053856;28;20206;-54
2023/07/11 02:14:03;;;;;;;0.10;0.10;;;13.80;61.50;;;;;;5068316;28;20226;-56
2023/07/11 02:16:34;;;;;;;0.10;0.10;;;13.80;61.50;;;;;;5073887;28;20206;-53
2023/07/11 02:19:05;;;;;;;0.15;0.15;;;13.80;61.50;;;;;;5074050;28;20191;-52
2023/07/11 02:21:35;;;;;;;0.20;0.20;;;13.90;61.60;;;;;;5046743;28;20219;-55
2023/07/11 02:24:10;;;;;;;0.10;0.10;;;13.90;61.60;;;;;;5034101;28;20212;-52
2023/07/11 02:26:40;;;;;;;0.10;0.10;;;13.90;61.60;;;;;;5033815;28;20200;-53
2023/07/11 02:29:11;;;;;;;0.10;0.10;;;13.90;61.50;;;;;;5033784;28;20246;-56
2023/07/11 02:31:42;;;;;;;0.20;0.20;;;13.90;61.60;;;;;;5033333;28;20466;-53
2023/07/11 02:34:13;;;;;;;0.20;0.20;;;13.90;61.60;;;;;;5033859;28;20266;-54
2023/07/11 02:36:43;;;;;;;0.10;0.10;;;14.00;61.60;;;;;;5033466;28;20605;-53
2023/07/11 02:39:16;;;;;;;0.10;0.10;;;14.00;61.70;;;;;;5033575;28;20196;-56
2023/07/11 02:41:47;;;;;;;0.10;0.10;;;14.00;61.70;;;;;;5033804;28;20219;-51
2023/07/11 02:44:17;;;;;;;0.10;0.10;;;14.00;61.60;;;;;;5068947;28;20268;-52
2023/07/11 02:46:48;;;;;;;0.10;0.10;;;14.00;61.60;;;;;;5073647;28;20260;-57
2023/07/11 02:49:19;;;;;;;0.15;0.15;;;14.10;61.70;;;;;;5073547;28;20256;-55
2023/07/11 02:51:50;;;;;;;0.10;0.10;;;14.10;61.70;;;;;;5073259;28;20203;-54
2023/07/11 02:54:22;;;;;;;0.10;0.10;;;14.10;61.80;;;;;;5073067;28;20222;-50
2023/07/11 02:56:53;;;;;;;0.10;0.10;;;14.10;61.70;;;;;;5062535;28;20188;-52
2023/07/11 02:59:24;;;;;;;0.13;0.13;;;14.20;61.80;;;;;;5052608;28;20195;-53
2023/07/11 03:01:56;;;;;;;0.10;0.10;;;14.20;61.80;;;;;;5052482;28;20766;-53
2023/07/11 03:04:26;;;;;;;0.10;0.10;;;14.20;61.80;;;;;;5052716;28;20228;-54
2023/07/11 03:06:58;;;;;;;0.10;0.10;;;14.20;61.80;;;;;;5053225;28;20195;-55
2023/07/11 03:09:30;;;;;;;0.10;0.10;;;14.20;61.80;;;;;;5053256;28;20242;-55
2023/07/11 03:12:01;;;;;;;0.13;0.13;;;14.30;61.90;;;;;;5047375;28;20204;-55
2023/07/11 03:14:31;;;;;;;0.10;0.10;;;14.30;61.90;;;;;;5071744;28;20219;-53
2023/07/11 03:17:02;;;;;;;0.10;0.10;;;14.30;62.00;;;;;;5072923;28;20199;-52
2023/07/11 03:19:33;;;;;;;0.10;0.10;;;14.40;62.00;;;;;;5072851;28;20198;-52
2023/07/11 03:22:04;;;;;;;0.10;0.10;;;14.40;62.00;;;;;;5070216;28;20687;-55
2023/07/11 03:24:36;;;;;;;0.20;0.20;;;14.40;62.10;;;;;;5032586;28;20220;-52
2023/07/11 03:27:07;;;;;;;0.05;0.05;;;14.40;62.10;;;;;;5032455;28;20207;-53
2023/07/11 03:29:38;;;;;;;0.10;0.10;;;14.50;62.10;;;;;;5033062;28;20545;-54
2023/07/11 03:32:11;;;;;;;0.10;0.10;;;14.50;62.10;;;;;;5032676;28;20211;-55
2023/07/11 03:34:47;;;;;;;0.10;0.10;;;14.50;62.00;;;;;;5032662;28;20270;-53
2023/07/11 03:37:20;;;;;;;0.10;0.10;;;14.50;62.00;;;;;;5032654;28;20200;-53
2023/07/11 03:39:53;;;;;;;0.10;0.10;;;14.50;61.90;;;;;;5032865;28;20195;-49
2023/07/11 03:42:25;;;;;;;0.10;0.10;;;14.60;61.90;;;;;;5036253;28;20220;-53
2023/07/11 03:44:56;;;;;;;0.10;0.10;;;14.60;61.90;;;;;;5072475;28;20219;-52
2023/07/11 03:47:26;;;;;;;0.10;0.10;;;14.60;61.80;;;;;;5072296;28;20202;-53
2023/07/11 03:49:57;;;;;;;0.00;0.00;;;14.60;61.80;;;;;;5072060;28;20202;-56
2023/07/11 03:52:28;;;;;;;0.10;0.10;;;14.70;61.80;;;;;;5071956;28;20217;-56
2023/07/11 03:55:00;;;;;;;0.10;0.10;;;14.70;61.80;;;;;;5072384;28;20630;-50
2023/07/11 03:57:31;;;;;;;0.10;0.10;;;14.70;61.80;;;;;;5072262;28;20227;-54
2023/07/11 04:00:02;;;;;;;0.10;0.10;;;14.70;61.70;;;;;;5053734;28;20188;-55
2023/07/11 04:02:32;;;;;;;0.10;0.10;;;14.70;61.70;;;;;;5051862;28;20211;-49
2023/07/11 04:05:03;;;;;;;0.10;0.10;;;14.70;61.80;;;;;;5052092;28;20215;-52
2023/07/11 04:07:33;;;;;;;0.10;0.10;;;14.70;61.60;;;;;;5051993;28;20204;-52
2023/07/11 04:10:07;;;;;;;0.10;0.10;;;14.80;61.70;;;;;;5051959;28;20191;-52
2023/07/11 04:12:38;;;;;;;0.10;0.10;;;14.80;61.60;;;;;;5055446;28;20659;-54
2023/07/11 04:15:09;;;;;;;0.20;0.20;;;14.90;61.60;;;;;;5071432;28;20571;-53
2023/07/11 04:17:40;;;;;;;0.20;0.20;;;14.90;61.60;;;;;;5071612;28;20203;-54
2023/07/11 04:20:12;;;;;;;0.10;0.10;;;14.90;61.60;;;;;;5071648;28;20195;-55
2023/07/11 04:22:42;;;;;;;0.10;0.10;;;14.90;61.60;;;;;;5071608;28;20227;-53
2023/07/11 04:25:15;;;;;;;0.10;0.10;;;14.90;61.70;;;;;;5071774;28;20194;-53
2023/07/11 04:27:46;;;;;;;0.10;0.10;;;15.00;61.70;;;;;;5071776;28;20202;-54
2023/07/11 04:30:17;;;;;;;0.10;0.10;;;15.00;61.70;;;;;;5060269;28;20720;-56
2023/07/11 04:32:48;;;;;;;0.10;0.10;;;15.00;61.60;;;;;;5032177;28;20250;-56
2023/07/11 04:35:20;;;;;;;0.10;0.10;;;15.10;61.60;;;;;;5031834;28;20219;-50
2023/07/11 04:37:50;;;;;;;0.10;0.10;;;15.10;61.40;;;;;;5030873;28;20188;-50
2023/07/11 04:40:23;;;;;;;0.10;0.10;;;15.10;61.40;;;;;;5031625;28;20726;-53
2023/07/11 04:42:54;;;;;;;0.10;0.10;;;15.10;61.40;;;;;;5043632;28;20222;-54
2023/07/11 04:45:24;;;;;;;0.10;0.10;;;15.10;61.30;;;;;;5071683;28;20194;-55
2023/07/11 04:47:55;;;;;;;0.20;0.20;;;15.10;61.30;;;;;;5071747;28;20190;-52
2023/07/11 04:50:26;;;;;;;0.10;0.10;;;15.20;61.30;;;;;;5071387;28;20194;-49
2023/07/11 04:52:57;;;;;;;0.13;0.13;;;15.20;61.30;;;;;;5071340;28;20190;-53
2023/07/11 04:55:29;;;;;;;0.20;0.20;;;15.20;61.20;;;;;;5071363;28;20203;-57
2023/07/11 04:58:00;;;;;;;0.10;0.10;;;15.20;61.20;;;;;;5066328;28;20310;-52
2023/07/11 05:00:30;;;;;;;0.10;0.10;;;15.20;61.20;;;;;;5051516;28;20196;-54
2023/07/11 05:03:01;;;;;;;0.10;0.10;;;15.20;61.10;;;;;;5050851;28;20223;-53
2023/07/11 05:05:31;;;;;;;0.08;0.08;;;15.20;61.00;;;;;;5051512;28;20203;-51
2023/07/11 05:08:02;;;;;;;0.10;0.10;;;15.20;60.90;;;;;;5044875;28;20192;-54
2023/07/11 05:10:35;;;;;;;0.10;0.10;;;15.20;60.90;;;;;;5031719;28;20238;-55
2023/07/11 05:13:05;;;;;;;0.08;0.08;;;15.20;60.70;;;;;;5057805;28;20720;-53
2023/07/11 05:15:36;;;;;;;0.10;0.10;;;15.20;60.80;;;;;;5071226;28;20198;-57
2023/07/11 05:18:06;;;;;;;0.20;0.20;;;15.20;60.70;;;;;;5071439;28;20199;-51
2023/07/11 05:20:37;;;;;;;0.10;0.10;;;15.20;60.70;;;;;;5071368;28;20191;-50
2023/07/11 05:23:08;;;;;;;0.13;0.13;;;15.20;60.70;;;;;;5070946;28;20227;-54
2023/07/11 05:25:41;;;;;;;0.10;0.10;;;15.20;60.60;;;;;;5071228;28;20206;-51
2023/07/11 05:28:13;;;;;;;0.20;0.20;;;15.20;60.60;;;;;;5071251;28;20202;-52
2023/07/11 05:30:44;;;;;;;0.15;0.15;;;15.10;60.60;;;;;;5066819;28;20194;-56
2023/07/11 05:33:15;;;;;;;0.10;0.10;;;15.20;60.70;;;;;;5051367;28;20695;-50
2023/07/11 05:35:57;;;;;;;0.10;0.10;;;15.10;60.60;;;;;;5051089;28;20188;-55
2023/07/11 05:38:28;;;;;;;0.10;0.10;;;15.10;60.60;;;;;;5050559;28;20368;-52
2023/07/11 05:41:02;;;;;;;0.10;0.10;;;15.10;60.60;;;;;;5051049;28;20605;-55
2023/07/11 05:43:33;;;;;;;0.10;0.10;;;15.10;60.60;;;;;;5046701;28;20232;-55
2023/07/11 05:46:03;;;;;;;0.10;0.10;;;15.10;60.70;;;;;;5038946;28;20537;-56
2023/07/11 05:48:34;;;;;;;0.10;0.10;;;15.10;60.60;;;;;;5051248;28;20195;-56
2023/07/11 05:51:17;;;;;;;0.10;0.10;;;15.10;60.60;;;;;;5041725;28;20195;-53
2023/07/11 05:53:49;;;;;;;0.10;0.10;;;15.10;60.60;;;;;;5053492;28;20211;-56
2023/07/11 05:56:22;;;;;;;0.10;0.10;;;15.10;60.50;;;;;;5053351;28;20659;-56
2023/07/11 05:58:54;;;;;;;0.10;0.10;;;15.10;60.50;;;;;;5053801;28;20199;-54
2023/07/11 06:01:26;;;;;;;0.10;0.10;;;15.00;60.50;;;;;;5051170;28;20203;-53
2023/07/11 06:04:08;;;;;;;0.10;0.10;;;15.00;60.50;;;;;;5041161;28;20223;-54
2023/07/11 06:06:41;;;;;;;0.20;0.20;;;15.00;60.50;;;;;;5053743;28;20195;-55
2023/07/11 06:09:14;;;;;;;0.20;0.20;;;15.00;60.40;;;;;;5053240;28;20203;-56
2023/07/11 06:11:48;;;;;;;0.10;0.10;;;15.00;60.40;;;;;;5053886;28;20290;-56
2023/07/11 06:14:20;;;;;;;0.10;0.10;;;15.00;60.40;;;;;;5060568;28;20790;-55
2023/07/11 06:16:51;;;;;;;0.20;0.20;;;15.00;60.60;;;;;;5053071;28;20195;-56
2023/07/11 06:19:22;;;;;;;0.13;0.13;;;15.00;60.50;;;;;;5052618;28;20648;-55
2023/07/11 06:21:52;;;;;;;0.10;0.10;;;15.00;60.50;;;;;;5053464;28;20204;-56
2023/07/11 06:24:23;;;;;;;0.10;0.10;;;15.00;60.60;;;;;;5052343;28;20230;-56
2023/07/11 06:26:55;;;;;;;0.10;0.10;;;15.00;60.60;;;;;;5053296;28;20204;-54
2023/07/11 06:29:26;;;;;;;0.20;0.20;;;15.00;60.60;;;;;;5053082;28;20192;-56
2023/07/11 06:31:57;;;;;;;0.10;0.10;;;14.90;60.50;;;;;;5053442;28;20214;-56
2023/07/11 06:34:28;;;;;;;0.20;0.20;;;14.90;60.50;;;;;;5052121;28;20215;-56
2023/07/11 06:36:59;;;;;;;0.20;0.20;;;14.90;60.50;;;;;;5047900;28;20275;-56
2023/07/11 06:39:29;;;;;;;0.17;0.17;;;14.90;60.50;;;;;;5047779;28;20207;-56
2023/07/11 06:42:02;;;;;;;0.10;0.10;;;14.90;60.50;;;;;;5052396;28;20273;-55
2023/07/11 06:44:35;;;;;;;0.20;0.20;;;14.90;60.40;;;;;;5062162;28;20234;-56
2023/07/11 06:47:06;;;;;;;0.10;0.10;;;14.90;60.40;;;;;;5052053;28;20195;-56
2023/07/11 06:49:37;;;;;;;0.10;0.10;;;14.90;60.40;;;;;;5052352;28;20559;-57
2023/07/11 06:52:08;;;;;;;0.10;0.10;;;14.90;60.40;;;;;;5053643;28;20300;-57
2023/07/11 06:54:39;;;;;;;0.17;0.17;;;14.90;60.40;;;;;;5053203;28;20227;-54
2023/07/11 06:57:12;;;;;;;0.20;0.20;;;14.90;60.40;;;;;;5052982;28;20194;-54
2023/07/11 06:59:43;;;;;;;0.08;0.08;;;14.90;60.40;;;;;;5053305;28;20207;-56
2023/07/11 07:02:14;;;;;;;0.10;0.10;;;14.90;60.50;;;;;;5052988;28;20286;-55
2023/07/11 07:04:45;;;;;;;0.20;0.20;;;14.90;60.40;;;;;;5053145;28;20231;-55
2023/07/11 07:07:16;;;;;;;0.17;0.17;;;14.90;60.40;;;;;;5053352;28;20195;-55
2023/07/11 07:09:47;;;;;;;0.10;0.10;;;14.90;60.50;;;;;;5053033;28;20191;-55
2023/07/11 07:12:19;;;;;;;0.10;0.10;;;14.90;60.50;;;;;;5053918;28;20554;-51
2023/07/11 07:14:50;;;;;;;0.10;0.10;;;14.80;60.50;;;;;;5072707;28;20211;-53
2023/07/11 07:17:21;;;;;;;0.10;0.10;;;14.80;60.50;;;;;;5054653;28;20183;-52
2023/07/11 07:19:52;;;;;;;0.10;0.10;;;14.80;60.50;;;;;;5052963;28;20195;-52
2023/07/11 07:22:23;;;;;;;0.10;0.10;;;14.80;60.60;;;;;;5052946;28;20202;-53
2023/07/11 07:24:54;;;;;;;0.10;0.10;;;14.80;60.50;;;;;;5052743;28;20706;-53
2023/07/11 07:27:26;;;;;;;0.10;0.10;;;14.80;60.50;;;;;;5052571;28;20187;-52
2023/07/11 07:29:57;;;;;;;0.00;0.00;;;14.80;60.40;;;;;;5052973;28;20195;-53
2023/07/11 07:32:31;;;;;;;0.10;0.10;;;14.70;60.40;;;;;;5052740;28;20196;-51
2023/07/11 07:35:02;;;;;;;0.10;0.10;;;14.70;60.30;;;;;;5052704;28;20681;-51
2023/07/11 07:37:35;;;;;;;0.10;0.10;;;14.70;60.30;;;;;;5052349;28;20570;-51
2023/07/11 07:40:06;;;;;;;0.10;0.10;;;14.70;60.40;;;;;;5052594;28;20188;-57
2023/07/11 07:42:39;;;;;;;0.17;0.17;;;14.70;60.30;;;;;;5056271;28;20674;-54
2023/07/11 07:45:11;;;;;;;0.10;0.10;;;14.70;60.40;;;;;;5072318;28;20222;-56
2023/07/11 07:47:42;;;;;;;0.10;0.10;;;14.70;60.40;;;;;;5072024;28;20201;-50
2023/07/11 07:50:13;;;;;;;0.10;0.10;;;14.70;60.40;;;;;;5071832;28;20666;-56
2023/07/11 07:52:45;;;;;;;0.10;0.10;;;14.70;60.50;;;;;;5071776;28;20191;-53
2023/07/11 07:55:16;;;;;;;0.10;0.10;;;14.70;60.50;;;;;;5071871;28;20655;-54
2023/07/11 07:57:48;;;;;;;0.10;0.10;;;14.60;60.50;;;;;;5072342;28;20654;-51
2023/07/11 08:00:20;;;;;;;0.10;0.10;;;14.60;60.50;;;;;;5045922;28;20192;-50
2023/07/11 08:02:51;;;;;;;0.10;0.10;;;14.60;60.50;;;;;;5032286;28;20566;-55
2023/07/11 08:05:22;;;;;;;0.10;0.10;;;14.60;60.60;;;;;;5031596;28;20315;-50
2023/07/11 08:07:54;;;;;;;0.10;0.10;;;14.60;60.60;;;;;;5031851;28;20196;-53
2023/07/11 08:10:25;;;;;;;0.10;0.10;;;14.60;60.60;;;;;;5031444;28;20204;-51
2023/07/11 08:12:58;;;;;;;0.10;0.10;;;14.60;60.50;;;;;;5042816;28;20209;-52
2023/07/11 08:15:29;;;;;;;0.10;0.10;;;14.60;60.50;;;;;;5071226;28;20198;-55
2023/07/11 08:18:00;;;;;;;0.10;0.10;;;14.60;60.50;;;;;;5071646;28;20199;-56
2023/07/11 08:20:31;;;;;;;0.00;0.00;;;14.60;60.50;;;;;;5071366;28;20236;-54
2023/07/11 08:23:01;;;;;;;0.10;0.10;;;14.60;60.50;;;;;;5070900;28;20202;-55
2023/07/11 08:25:32;;;;;;;0.10;0.10;;;14.60;60.50;;;;;;5071718;28;20198;-54
2023/07/11 08:28:06;;;;;;;0.10;0.10;;;14.60;60.60;;;;;;5071287;28;20195;-55
2023/07/11 08:30:39;;;;;;;0.10;0.10;;;14.50;60.50;;;;;;5071304;28;20554;-51
2023/07/11 08:33:10;;;;;;;0.10;0.10;;;14.50;60.50;;;;;;5071672;28;20246;-53
2023/07/11 08:35:41;;;;;;;0.13;0.13;;;14.50;60.50;;;;;;5069324;28;20190;-53
2023/07/11 08:38:12;;;;;;;0.13;0.13;;;14.50;60.50;;;;;;5032957;28;20200;-55
2023/07/11 08:40:45;;;;;;;0.10;0.10;;;14.50;60.60;;;;;;5031476;28;20243;-50
2023/07/11 08:43:20;;;;;;;0.10;0.10;;;14.50;60.60;;;;;;5049412;28;20686;-57
2023/07/11 08:45:53;;;;;;;0.10;0.10;;;14.50;60.60;;;;;;5071490;28;20202;-56
2023/07/11 08:48:28;;;;;;;0.13;0.13;;;14.50;60.60;;;;;;5071433;28;20202;-56
2023/07/11 08:51:07;;;;;;;0.10;0.10;;;14.40;60.50;;;;;;5071421;28;20205;-55
2023/07/11 08:53:41;;;;;;;0.10;0.10;;;14.50;60.50;;;;;;5071421;28;20230;-50
2023/07/11 08:56:20;;;;;;;0.10;0.10;;;14.50;60.50;;;;;;5071374;28;20206;-52
2023/07/11 08:58:53;;;;;;;0.10;0.10;;;14.40;60.60;;;;;;5049657;28;20535;-56
2023/07/11 09:01:37;;;;;;;0.10;0.10;;;14.40;60.70;;;;;;5037530;28;20209;-53
2023/07/11 09:04:12;;;;;;;0.10;0.10;;;14.50;60.70;;;;;;5036904;28;20215;-55
2023/07/11 09:06:49;;;;;;;0.10;0.10;;;14.40;60.60;;;;;;5031737;28;20188;-50
2023/07/11 09:09:20;;;;;;;0.10;0.10;;;14.40;60.60;;;;;;5038168;28;20198;-54
2023/07/11 09:11:58;;;;;;;0.20;0.20;;;14.40;60.60;;;;;;5051200;28;20210;-53
2023/07/11 09:14:41;;;;;;;0.10;0.10;;;14.40;60.60;;;;;;5061644;28;20219;-55
2023/07/11 09:17:21;;;;;;;0.10;0.10;;;14.40;60.70;;;;;;5043779;28;20198;-55
2023/07/11 09:20:05;;;;;;;0.10;0.10;;;14.40;60.70;;;;;;5049203;28;20199;-54
2023/07/11 09:22:48;;;;;;;0.10;0.10;;;14.40;60.60;;;;;;5049201;28;20290;-53
2023/07/11 09:25:21;;;;;;;0.10;0.10;;;14.40;60.70;;;;;;5053004;28;20721;-57
2023/07/11 09:27:56;;;;;;;0.10;0.10;;;14.40;60.60;;;;;;5054837;28;20253;-53
2023/07/11 09:30:37;;;;;;;0.10;0.10;;;14.30;60.60;;;;;;5054200;28;20191;-56
2023/07/11 09:33:17;;;;;;;0.10;0.10;;;14.30;60.60;;;;;;5054099;28;20215;-55
2023/07/11 09:35:50;;;;;;;0.17;0.17;;;14.30;60.60;;;;;;5053129;28;20565;-58
2023/07/11 09:38:27;;;;;;;0.10;0.10;;;14.30;60.50;;;;;;5053860;28;20202;-54
2023/07/11 09:41:03;;;;;;;0.20;0.20;;;14.30;60.60;;;;;;5053486;28;20192;-56
2023/07/11 09:43:34;;;;;;;0.10;0.10;;;14.40;60.60;;;;;;5065860;28;20604;-56
2023/07/11 09:46:14;;;;;;;0.10;0.10;;;14.30;60.50;;;;;;5034145;28;20223;-56
2023/07/11 09:48:48;;;;;;;0.10;0.10;;;14.30;60.50;;;;;;5032044;28;20279;-56
2023/07/11 09:51:28;;;;;;;0.10;0.10;;;14.30;60.50;;;;;;5052521;28;20206;-57
2023/07/11 09:53:59;;;;;;;0.10;0.10;;;14.30;60.50;;;;;;5048696;28;20219;-54
2023/07/11 09:56:30;;;;;;;0.10;0.10;;;14.30;60.50;;;;;;5053836;28;20196;-55
2023/07/11 09:59:02;;;;;;;0.08;0.08;;;14.30;60.60;;;;;;5051794;28;20199;-53
2023/07/11 10:01:37;;;;;;;0.10;0.10;;;14.30;60.60;;;;;;5052859;28;20279;-56
2023/07/11 10:04:10;;;;;;;0.10;0.10;;;14.30;60.60;;;;;;5065511;28;20306;-55
2023/07/11 10:06:44;;;;;;;0.20;0.20;;;14.30;60.60;;;;;;5053284;28;20612;-56
2023/07/11 10:09:25;;;;;;;0.10;0.10;;;14.30;60.60;;;;;;5053319;28;20202;-53
2023/07/11 10:11:57;;;;;;;0.10;0.10;;;14.30;60.60;;;;;;5053059;28;20199;-52
2023/07/11 10:14:32;;;;;;;0.10;0.10;;;14.30;60.60;;;;;;5066692;28;20652;-56
2023/07/11 10:17:14;;;;;;;0.10;0.10;;;14.30;60.60;;;;;;5053189;28;20202;-54
2023/07/11 10:19:45;;;;;;;0.10;0.10;;;14.20;60.50;;;;;;5052805;28;20198;-50
2023/07/11 10:22:21;;;;;;;0.15;0.15;;;14.30;60.60;;;;;;5052694;28;20203;-48
2023/07/11 10:24:52;;;;;;;0.10;0.10;;;14.30;60.50;;;;;;5052822;28;20219;-53
2023/07/11 10:27:31;;;;;;;0.10;0.10;;;14.20;60.40;;;;;;5053852;28;20191;-54
2023/07/11 10:30:04;;;;;;;0.10;0.10;;;14.20;60.40;;;;;;5045409;28;20203;-51
2023/07/11 10:32:43;;;;;;;0.10;0.10;;;14.30;60.50;;;;;;5052715;28;20202;-56
2023/07/11 10:35:17;;;;;;;0.10;0.10;;;14.30;60.60;;;;;;5052007;28;20196;-51
2023/07/11 10:37:53;;;;;;;0.10;0.10;;;14.20;60.40;;;;;;5053084;28;20202;-54
2023/07/11 10:40:27;;;;;;;0.10;0.10;;;14.20;60.50;;;;;;5053661;28;20199;-51
2023/07/11 10:43:05;;;;;;;0.10;0.10;;;14.20;60.50;;;;;;5058960;28;20662;-53
2023/07/11 10:45:43;;;;;;;0.10;0.10;;;14.20;60.50;;;;;;5059803;28;20227;-57
2023/07/11 10:48:26;;;;;;;0.10;0.10;;;14.20;60.50;;;;;;5051769;28;20196;-54
2023/07/11 10:51:01;;;;;;;0.10;0.10;;;14.20;60.50;;;;;;5052293;28;20201;-56
2023/07/11 10:53:39;;;;;;;0.10;0.10;;;14.20;60.50;;;;;;5051274;28;20288;-57
2023/07/11 10:56:13;;;;;;;0.10;0.10;;;14.20;60.50;;;;;;5052653;28;20191;-54
2023/07/11 10:58:43;;;;;;;0.10;0.10;;;14.10;60.50;;;;;;5052725;28;20207;-53
2023/07/11 11:01:24;;;;;;;0.10;0.10;;;14.20;60.50;;;;;;5052151;28;20604;-50
2023/07/11 11:04:09;;;;;;;0.10;0.10;;;14.20;60.50;;;;;;5035559;28;20612;-52
2023/07/11 11:06:53;;;;;;;0.10;0.10;;;14.20;60.50;;;;;;5036034;28;20204;-52
2023/07/11 11:09:35;;;;;;;0.10;0.10;;;14.20;60.40;;;;;;5032935;28;20227;-51
2023/07/11 11:12:21;;;;;;;0.10;0.10;;;14.20;60.40;;;;;;5040796;28;20192;-53
2023/07/11 11:14:58;;;;;;;0.10;0.10;;;14.10;60.40;;;;;;5041599;28;20307;-52
2023/07/11 11:17:40;;;;;;;0.10;0.10;;;14.10;60.40;;;;;;5040704;28;20196;-50
2023/07/11 11:20:17;;;;;;;0.10;0.10;;;14.10;60.40;;;;;;5041553;28;20437;-56
2023/07/11 11:23:01;;;;;;;0.10;0.10;;;14.10;60.40;;;;;;5041337;28;20195;-54
2023/07/11 11:25:39;;;;;;;0.10;0.10;;;14.10;60.40;;;;;;5041417;28;20224;-54
2023/07/11 11:28:21;;;;;;;0.10;0.10;;;14.10;60.40;;;;;;5041226;28;20597;-54
2023/07/11 11:30:58;;;;;;;0.15;0.15;;;14.00;60.40;;;;;;5044740;28;20600;-52
2023/07/11 11:33:47;;;;;;;0.13;0.13;;;14.10;60.50;;;;;;5041453;28;20215;-53
2023/07/11 11:36:26;;;;;;;0.10;0.10;;;14.00;60.40;;;;;;5043436;28;20666;-57
2023/07/11 11:39:09;;;;;;;0.10;0.10;;;14.00;60.40;;;;;;5035146;28;20192;-57
2023/07/11 11:41:42;;;;;;;0.03;0.03;;;14.00;60.50;;;;;;5032243;28;20204;-54
2023/07/11 11:44:19;;;;;;;0.10;0.10;;;14.00;60.40;;;;;;5065786;28;20218;-54
2023/07/11 11:46:52;;;;;;;0.05;0.05;;;14.00;60.50;;;;;;5045625;28;20198;-51
2023/07/11 11:49:25;;;;;;;0.10;0.10;;;14.00;60.40;;;;;;5032364;28;20211;-56
2023/07/11 11:51:58;;;;;;;0.10;0.10;;;14.00;60.40;;;;;;5032622;28;20196;-53
2023/07/11 11:54:36;;;;;;;0.10;0.10;;;14.00;60.40;;;;;;5032250;28;20224;-52
2023/07/11 11:57:08;;;;;;;0.10;0.10;;;14.00;60.40;;;;;;5032618;28;20200;-53
2023/07/11 11:59:40;;;;;;;0.10;0.10;;;14.00;60.40;;;;;;5032575;28;20531;-51
2023/07/11 12:02:14;;;;;;;0.10;0.10;;;14.00;60.40;;;;;;5032509;28;20531;-54
2023/07/11 12:05:19;;;;;;;0.17;0.17;;;14.00;60.40;;;;;;5032310;28;20235;-53
2023/07/11 12:08:28;;;;;;;0.15;0.15;;;14.00;60.40;;;;;;5032162;28;20191;-54
2023/07/11 12:11:20;;;;;;;0.10;0.10;;;14.00;60.40;;;;;;5031893;28;20215;-51
2023/07/11 12:14:21;;;;;;;0.10;0.10;;;13.90;60.30;;;;;;5056085;28;20222;-55
2023/07/11 12:16:54;;;;;;;0.13;0.13;;;13.90;60.30;;;;;;5071444;28;20282;-55
2023/07/11 12:19:33;;;;;;;0.10;0.10;;;13.90;60.40;;;;;;5072140;28;20194;-53
2023/07/11 12:22:07;;;;;;;0.10;0.10;;;13.90;60.40;;;;;;5071749;28;20199;-55
2023/07/11 12:25:02;;;;;;;0.15;0.15;;;13.90;60.40;;;;;;5071296;28;20675;-58
2023/07/11 12:27:50;;;;;;;0.10;0.10;;;13.90;60.50;;;;;;5044233;28;20196;-55
2023/07/11 12:30:44;;;;;;;0.10;0.10;;;13.90;60.40;;;;;;5031935;28;20338;-56
2023/07/11 12:33:36;;;;;;;0.10;0.10;;;13.90;60.40;;;;;;5031854;28;20262;-57
2023/07/11 12:36:32;;;;;;;0.10;0.10;;;13.90;60.40;;;;;;5031822;28;20607;-57
2023/07/11 12:39:13;;;;;;;0.10;0.10;;;13.90;60.40;;;;;;5031984;28;20254;-57
2023/07/11 12:41:52;;;;;;;0.10;0.10;;;13.80;60.30;;;;;;5038613;28;20195;-52
2023/07/11 12:44:23;;;;;;;0.10;0.10;;;13.90;60.40;;;;;;5069747;28;20210;-53
2023/07/11 12:46:54;;;;;;;0.10;0.10;;;13.90;60.40;;;;;;5071519;28;20199;-52
2023/07/11 12:49:28;;;;;;;0.10;0.10;;;13.80;60.30;;;;;;5071189;28;20245;-52
2023/07/11 12:52:08;;;;;;;0.10;0.10;;;13.80;60.40;;;;;;5071618;28;20265;-50
2023/07/11 12:54:39;;;;;;;0.10;0.10;;;13.80;60.30;;;;;;5071451;28;20234;-52
2023/07/11 12:57:16;;;;;;;0.10;0.10;;;13.80;60.40;;;;;;5071505;28;20191;-53
2023/07/11 12:59:47;;;;;;;0.10;0.10;;;13.80;60.40;;;;;;5074239;28;20209;-53
2023/07/11 13:02:25;;;;;;;0.10;0.10;;;13.80;60.30;;;;;;5076039;28;20203;-51
2023/07/11 13:04:59;;;;;;;0.20;0.20;;;13.80;60.30;;;;;;5075610;28;20218;-51
2023/07/11 13:07:32;;;;;;;0.10;0.10;;;13.80;60.30;;;;;;5075640;28;20217;-54
2023/07/11 13:10:04;;;;;;;0.10;0.10;;;13.90;60.40;;;;;;5075447;28;20230;-56
2023/07/11 13:12:39;;;;;;;0.10;0.10;;;13.80;60.30;;;;;;5075111;28;20230;-54
2023/07/11 13:15:15;;;;;;;0.10;0.10;;;13.80;60.30;;;;;;5067849;28;20698;-53
2023/07/11 13:17:48;;;;;;;0.10;0.10;;;13.80;60.20;;;;;;5055483;28;20379;-53
2023/07/11 13:20:23;;;;;;;0.10;0.10;;;13.80;60.20;;;;;;5055128;28;20675;-55
2023/07/11 13:22:54;;;;;;;0.10;0.10;;;13.80;60.20;;;;;;5055094;28;20198;-52